createdAt,value
2023-05-07T00:00:12.227Z,2.40
2023-05-07T00:02:40.712Z,1.17
2023-05-07T00:05:10.831Z,2.50
2023-05-07T00:07:39.322Z,4.10
2023-05-07T00:10:08.860Z,3.13
2023-05-07T00:12:37.117Z,2.90
2023-05-07T00:15:06.481Z,5.60
2023-05-07T00:17:35.555Z,6.80
2023-05-07T00:20:04.295Z,3.40
2023-05-07T00:22:33.853Z,8.13
2023-05-07T00:25:01.778Z,5.05
2023-05-07T00:27:29.767Z,2.47
2023-05-07T00:29:57.772Z,2.55
2023-05-07T00:32:25.801Z,2.58
2023-05-07T00:34:53.825Z,1.70
2023-05-07T00:37:21.776Z,1.65
2023-05-07T00:39:51.206Z,2.00
2023-05-07T00:42:19.271Z,3.20
2023-05-07T00:44:47.455Z,1.73
2023-05-07T00:47:16.691Z,3.15
2023-05-07T00:49:46.447Z,2.30
2023-05-07T00:52:17.822Z,2.05
2023-05-07T00:54:46.608Z,1.67
2023-05-07T00:57:17.505Z,2.55
2023-05-07T00:59:45.662Z,4.10
2023-05-07T01:02:13.548Z,1.88
2023-05-07T01:04:41.522Z,1.50
2023-05-07T01:07:10.330Z,3.80
2023-05-07T01:09:39.097Z,1.30
2023-05-07T01:12:08.833Z,2.90
2023-05-07T01:14:38.632Z,2.25
2023-05-07T01:17:07.691Z,1.65
2023-05-07T01:19:36.328Z,1.55
2023-05-07T01:22:09.399Z,2.17
2023-05-07T01:24:48.751Z,1.83
2023-05-07T01:27:18.073Z,1.10
2023-05-07T01:29:46.111Z,4.00
2023-05-07T01:32:15.903Z,3.05
2023-05-07T01:34:46.005Z,0.98
2023-05-07T01:37:15.060Z,1.17
2023-05-07T01:39:44.562Z,4.25
2023-05-07T01:42:14.624Z,2.03
2023-05-07T01:44:42.892Z,1.63
2023-05-07T01:47:11.485Z,2.50
2023-05-07T01:49:39.626Z,3.20
2023-05-07T01:52:07.986Z,2.45
2023-05-07T01:54:36.024Z,2.80
2023-05-07T01:57:04.838Z,5.25
2023-05-07T01:59:34.416Z,2.50
2023-05-07T02:02:02.740Z,1.63
2023-05-07T02:04:31.919Z,1.77
2023-05-07T02:06:59.884Z,3.63
2023-05-07T02:09:27.890Z,4.35
2023-05-07T02:11:56.543Z,1.30
2023-05-07T02:14:27.039Z,1.85
2023-05-07T02:16:56.486Z,6.32
2023-05-07T02:19:24.622Z,2.50
2023-05-07T02:21:54.027Z,1.92
2023-05-07T02:24:22.085Z,1.33
2023-05-07T02:26:50.162Z,3.05
2023-05-07T02:29:18.185Z,1.50
2023-05-07T02:31:46.408Z,3.17
2023-05-07T02:34:15.833Z,2.05
2023-05-07T02:36:43.938Z,2.75
2023-05-07T02:39:14.620Z,2.00
2023-05-07T02:41:42.907Z,1.23
2023-05-07T02:44:10.923Z,1.85
2023-05-07T02:46:40.211Z,2.47
2023-05-07T02:49:11.528Z,1.88
2023-05-07T02:51:41.033Z,3.42
2023-05-07T02:54:13.928Z,2.95
2023-05-07T02:56:42.031Z,2.92
2023-05-07T02:59:10.128Z,1.98
2023-05-07T03:01:42.848Z,2.72
2023-05-07T03:04:11.699Z,2.03
2023-05-07T03:06:41.229Z,1.50
2023-05-07T03:09:09.788Z,2.05
2023-05-07T03:11:37.888Z,1.50
2023-05-07T03:14:05.903Z,1.52
2023-05-07T03:16:33.987Z,1.92
2023-05-07T03:19:02.160Z,5.85
2023-05-07T03:21:31.584Z,2.45
2023-05-07T03:24:01.140Z,3.08
2023-05-07T03:26:29.332Z,1.23
2023-05-07T03:28:57.815Z,4.15
2023-05-07T03:31:26.196Z,1.55
2023-05-07T03:33:56.429Z,2.05
2023-05-07T03:36:27.662Z,3.33
2023-05-07T03:38:56.712Z,2.00
2023-05-07T03:41:30.604Z,1.73
2023-05-07T03:43:58.791Z,1.20
2023-05-07T03:46:27.419Z,5.15
2023-05-07T03:48:56.077Z,3.35
2023-05-07T03:51:24.106Z,3.00
2023-05-07T03:53:53.932Z,3.50
2023-05-07T03:56:23.220Z,6.32
2023-05-07T03:58:57.321Z,3.78
2023-05-07T04:01:25.245Z,4.05
2023-05-07T04:03:53.844Z,4.03
2023-05-07T04:06:22.412Z,2.38
2023-05-07T04:08:51.277Z,2.97
2023-05-07T04:11:19.574Z,3.53
2023-05-07T04:13:48.340Z,3.38
2023-05-07T04:16:20.479Z,2.25
2023-05-07T04:18:48.562Z,4.70
2023-05-07T04:21:17.807Z,2.38
2023-05-07T04:23:46.242Z,1.75
2023-05-07T04:26:15.289Z,2.63
2023-05-07T04:28:45.782Z,3.22
2023-05-07T04:31:13.904Z,3.85
2023-05-07T04:33:43.826Z,5.28
2023-05-07T04:36:15.450Z,2.55
2023-05-07T04:38:59.180Z,3.03
2023-05-07T04:41:27.566Z,5.22
2023-05-07T04:43:56.496Z,5.43
2023-05-07T04:46:26.142Z,4.70
2023-05-07T04:48:57.154Z,3.40
2023-05-07T04:51:25.279Z,3.70
2023-05-07T04:53:53.360Z,4.00
2023-05-07T04:56:21.708Z,4.88
2023-05-07T04:58:50.031Z,3.95
2023-05-07T05:01:21.296Z,2.28
2023-05-07T05:03:49.739Z,3.22
2023-05-07T05:06:19.535Z,3.40
2023-05-07T05:08:47.442Z,3.25
2023-05-07T05:11:15.946Z,3.15
2023-05-07T05:13:44.531Z,2.05
2023-05-07T05:16:17.902Z,1.98
2023-05-07T05:18:46.298Z,2.65
2023-05-07T05:21:16.580Z,3.42
2023-05-07T05:23:48.211Z,3.17
2023-05-07T05:26:19.634Z,2.38
2023-05-07T05:28:47.757Z,4.45
2023-05-07T05:31:18.220Z,2.97
2023-05-07T05:33:46.386Z,1.27
2023-05-07T05:36:14.796Z,1.35
2023-05-07T05:38:44.945Z,1.95
2023-05-07T05:41:15.187Z,1.50
2023-05-07T05:43:43.199Z,1.85
2023-05-07T05:46:13.007Z,2.03
2023-05-07T05:48:41.129Z,0.77
2023-05-07T05:51:10.230Z,1.08
2023-05-07T05:53:38.322Z,2.10
2023-05-07T05:56:08.593Z,1.55
2023-05-07T05:58:38.364Z,1.25
2023-05-07T06:01:08.684Z,1.67
2023-05-07T06:03:38.446Z,0.98
2023-05-07T06:06:12.622Z,1.23
2023-05-07T06:08:40.848Z,3.50
2023-05-07T06:11:09.158Z,3.40
2023-05-07T06:13:41.302Z,1.95
2023-05-07T06:16:09.564Z,1.45
2023-05-07T06:18:37.969Z,1.88
2023-05-07T06:21:06.645Z,2.17
2023-05-07T06:23:36.155Z,2.05
2023-05-07T06:26:05.964Z,1.00
2023-05-07T06:28:39.439Z,1.50
2023-05-07T06:31:18.100Z,1.42
2023-05-07T06:33:56.308Z,1.42
2023-05-07T06:36:27.398Z,1.65
2023-05-07T06:38:58.396Z,1.48
2023-05-07T06:41:26.881Z,3.90
2023-05-07T06:43:57.017Z,1.15
2023-05-07T06:46:34.877Z,1.25
2023-05-07T06:49:03.715Z,4.47
2023-05-07T06:51:32.364Z,2.63
2023-05-07T06:54:05.444Z,1.40
2023-05-07T06:56:35.454Z,1.08
2023-05-07T06:59:05.718Z,1.40
2023-05-07T07:01:39.822Z,1.75
2023-05-07T07:04:09.504Z,1.33
2023-05-07T07:06:38.391Z,0.90
2023-05-07T07:09:10.547Z,1.55
2023-05-07T07:11:38.712Z,2.58
2023-05-07T07:14:08.021Z,1.00
2023-05-07T07:16:43.396Z,2.13
2023-05-07T07:19:11.663Z,1.95
2023-05-07T07:21:39.736Z,1.80
2023-05-07T07:24:08.049Z,1.58
2023-05-07T07:26:36.738Z,1.50
2023-05-07T07:29:05.221Z,1.33
2023-05-07T07:31:33.550Z,3.15
2023-05-07T07:34:03.479Z,1.05
2023-05-07T07:36:38.885Z,2.53
2023-05-07T07:39:14.357Z,1.52
2023-05-07T07:41:43.341Z,1.45
2023-05-07T07:44:15.988Z,1.88
2023-05-07T07:46:47.971Z,1.33
2023-05-07T07:49:17.863Z,2.22
2023-05-07T07:51:46.450Z,2.45
2023-05-07T07:54:15.443Z,1.52
2023-05-07T07:56:43.713Z,1.92
2023-05-07T07:59:14.838Z,1.70
2023-05-07T08:01:43.380Z,2.25
2023-05-07T08:04:11.674Z,0.90
2023-05-07T08:06:44.214Z,2.28
2023-05-07T08:09:12.763Z,1.35
2023-05-07T08:11:42.983Z,3.28
2023-05-07T08:14:11.709Z,1.40
2023-05-07T08:16:40.124Z,2.50
2023-05-07T08:19:09.167Z,1.77
2023-05-07T08:21:40.675Z,2.08
2023-05-07T08:24:12.606Z,3.45
2023-05-07T08:26:41.824Z,1.38
2023-05-07T08:29:11.656Z,2.15
2023-05-07T08:31:40.610Z,0.95
2023-05-07T08:34:10.226Z,2.38
2023-05-07T08:36:42.978Z,1.73
2023-05-07T08:39:14.350Z,1.10
2023-05-07T08:41:42.762Z,1.52
2023-05-07T08:44:14.913Z,3.38
2023-05-07T08:46:44.519Z,2.03
2023-05-07T08:49:12.847Z,1.77
2023-05-07T08:51:41.127Z,2.20
2023-05-07T08:54:11.237Z,1.85
2023-05-07T08:56:41.772Z,4.47
2023-05-07T08:59:09.889Z,2.30
2023-05-07T09:01:39.724Z,2.75
2023-05-07T09:04:08.900Z,2.75
2023-05-07T09:06:38.962Z,7.57
2023-05-07T09:09:07.305Z,3.70
2023-05-07T09:11:35.461Z,1.50
2023-05-07T09:14:05.701Z,2.88
2023-05-07T09:16:39.106Z,1.50
2023-05-07T09:19:07.385Z,1.70
2023-05-07T09:21:36.196Z,4.50
2023-05-07T09:24:08.478Z,2.53
2023-05-07T09:26:40.650Z,3.83
2023-05-07T09:29:12.648Z,4.97
2023-05-07T09:31:41.682Z,4.25
2023-05-07T09:34:12.944Z,3.08
2023-05-07T09:36:44.049Z,3.80
2023-05-07T09:39:14.087Z,17.23
2023-05-07T09:41:46.247Z,2.50
2023-05-07T09:44:38.062Z,4.63
2023-05-07T09:47:10.100Z,2.30
2023-05-07T09:49:49.030Z,2.25
2023-05-07T09:52:22.190Z,4.47
2023-05-07T09:54:56.132Z,2.35
2023-05-07T09:57:28.227Z,6.30
2023-05-07T10:00:05.277Z,3.30
2023-05-07T10:02:38.526Z,4.25
2023-05-07T10:05:07.773Z,4.28
2023-05-07T10:07:36.390Z,4.78
2023-05-07T10:10:09.664Z,3.65
2023-05-07T10:12:42.773Z,2.65
2023-05-07T10:15:18.923Z,3.05
2023-05-07T10:17:51.735Z,3.00
2023-05-07T10:20:19.874Z,3.88
2023-05-07T10:22:50.740Z,3.95
2023-05-07T10:25:27.939Z,1.80
2023-05-07T10:27:59.267Z,2.65
2023-05-07T10:30:38.382Z,1.15
2023-05-07T10:33:11.115Z,3.38
2023-05-07T10:35:46.133Z,2.83
2023-05-07T10:38:14.989Z,7.47
2023-05-07T10:40:47.876Z,1.58
2023-05-07T10:43:18.775Z,1.95
2023-05-07T10:46:16.836Z,2.15
2023-05-07T10:49:12.282Z,1.90
2023-05-07T10:52:16.998Z,4.30
2023-05-07T10:55:26.949Z,1.48
2023-05-07T10:58:31.884Z,1.83
2023-05-07T11:01:52.751Z,2.25
2023-05-07T11:04:27.489Z,2.83
2023-05-07T11:07:32.143Z,6.93
2023-05-07T11:10:09.261Z,2.88
2023-05-07T11:12:57.497Z,3.88
2023-05-07T11:15:45.515Z,4.70
2023-05-07T11:18:21.819Z,1.33
2023-05-07T11:20:57.830Z,4.97
2023-05-07T11:24:00.713Z,3.85
2023-05-07T11:26:50.347Z,3.63
2023-05-07T11:29:22.941Z,4.15
2023-05-07T11:31:57.115Z,2.45
2023-05-07T11:34:31.017Z,2.90
2023-05-07T11:37:01.047Z,2.17
2023-05-07T11:39:47.929Z,1.90
2023-05-07T11:42:27.926Z,3.75
2023-05-07T11:44:55.924Z,1.90
2023-05-07T11:47:24.109Z,3.08
2023-05-07T11:49:55.929Z,1.98
2023-05-07T11:52:25.595Z,3.92
2023-05-07T11:54:54.319Z,5.72
2023-05-07T11:57:22.812Z,1.00
2023-05-07T11:59:55.099Z,1.52
2023-05-07T12:02:23.253Z,2.17
2023-05-07T12:04:51.364Z,2.47
2023-05-07T12:07:20.879Z,1.30
2023-05-07T12:09:49.547Z,4.70
2023-05-07T12:12:18.380Z,2.83
2023-05-07T12:14:47.668Z,4.13
2023-05-07T12:17:16.540Z,3.42
2023-05-07T12:19:46.782Z,1.80
2023-05-07T12:22:15.485Z,2.78
2023-05-07T12:24:49.893Z,2.15
2023-05-07T12:27:19.220Z,1.33
2023-05-07T12:29:49.164Z,2.90
2023-05-07T12:32:18.221Z,3.55
2023-05-07T12:34:46.769Z,1.40
2023-05-07T12:37:15.689Z,4.75
2023-05-07T12:39:50.487Z,2.10
2023-05-07T12:42:24.566Z,2.78
2023-05-07T12:44:53.257Z,3.40
2023-05-07T12:47:22.743Z,1.83
2023-05-07T12:49:51.350Z,1.73
2023-05-07T12:52:19.345Z,2.50
2023-05-07T12:54:50.224Z,5.38
2023-05-07T12:57:21.813Z,1.17
2023-05-07T12:59:49.766Z,3.67
2023-05-07T13:02:17.747Z,1.20
2023-05-07T13:04:45.744Z,3.00
2023-05-07T13:07:13.705Z,4.45
2023-05-07T13:09:41.824Z,1.92
2023-05-07T13:12:11.263Z,4.65
2023-05-07T13:14:39.614Z,4.63
2023-05-07T13:17:07.668Z,5.70
2023-05-07T13:19:35.896Z,1.98
2023-05-07T13:22:03.872Z,3.50
2023-05-07T13:24:31.974Z,1.85
2023-05-07T13:27:00.031Z,3.00
2023-05-07T13:29:31.287Z,2.03
2023-05-07T13:31:59.490Z,5.03
2023-05-07T13:34:27.721Z,1.38
2023-05-07T13:36:56.124Z,3.20
2023-05-07T13:39:24.152Z,1.60
2023-05-07T13:41:52.136Z,3.58
2023-05-07T13:44:20.223Z,1.60
2023-05-07T13:46:49.669Z,4.38
2023-05-07T13:49:17.655Z,2.67
2023-05-07T13:51:45.637Z,7.38
2023-05-07T13:54:13.751Z,2.65
2023-05-07T13:56:41.736Z,5.53
2023-05-07T13:59:10.071Z,1.90
2023-05-07T14:01:38.158Z,2.05
2023-05-07T14:04:08.834Z,3.08
2023-05-07T14:06:36.796Z,2.08
2023-05-07T14:09:05.204Z,2.08
2023-05-07T14:11:34.172Z,1.13
2023-05-07T14:14:04.110Z,8.45
2023-05-07T14:16:32.225Z,2.90
2023-05-07T14:19:00.347Z,3.38
2023-05-07T14:21:29.683Z,1.27
2023-05-07T14:23:58.469Z,3.35
2023-05-07T14:26:28.068Z,2.45
2023-05-07T14:28:58.313Z,1.95
2023-05-07T14:31:26.373Z,1.75
2023-05-07T14:33:54.583Z,1.60
2023-05-07T14:36:23.897Z,9.00
2023-05-07T14:38:53.719Z,1.67
2023-05-07T14:41:22.444Z,2.38
2023-05-07T14:43:51.544Z,1.70
2023-05-07T14:46:19.844Z,4.28
2023-05-07T14:48:48.127Z,2.03
2023-05-07T14:51:16.135Z,4.13
2023-05-07T14:53:44.593Z,3.92
2023-05-07T14:56:14.277Z,3.72
2023-05-07T14:58:42.449Z,5.13
2023-05-07T15:01:10.465Z,3.90
2023-05-07T15:03:38.624Z,2.97
2023-05-07T15:06:07.031Z,4.78
2023-05-07T15:08:35.043Z,5.60
2023-05-07T15:11:03.088Z,10.23
2023-05-07T15:13:32.552Z,3.72
2023-05-07T15:16:00.652Z,27.33
2023-05-07T15:18:28.628Z,65.30
2023-05-07T15:20:58.310Z,73.72
2023-05-07T15:23:27.194Z,91.28
2023-05-07T15:25:55.373Z,133.65
2023-05-07T15:28:25.494Z,123.60
2023-05-07T15:30:57.817Z,139.70
2023-05-07T15:33:25.822Z,148.93
2023-05-07T15:35:53.812Z,119.57
2023-05-07T15:38:21.875Z,125.57
2023-05-07T15:40:50.928Z,143.88
2023-05-07T15:43:18.924Z,146.32
2023-05-07T15:45:46.986Z,165.18
2023-05-07T15:48:16.398Z,154.50
2023-05-07T15:50:44.485Z,149.07
2023-05-07T15:53:13.812Z,136.25
2023-05-07T15:55:43.081Z,101.05
2023-05-07T15:58:11.098Z,80.35
2023-05-07T16:00:41.258Z,73.40
2023-05-07T16:03:09.801Z,56.65
2023-05-07T16:05:39.357Z,46.72
2023-05-07T16:08:07.467Z,39.75
2023-05-07T16:10:35.435Z,35.28
2023-05-07T16:13:04.133Z,34.22
2023-05-07T16:15:32.186Z,28.15
2023-05-07T16:18:00.244Z,27.25
2023-05-07T16:20:31.056Z,26.85
2023-05-07T16:23:00.474Z,22.92
2023-05-07T16:25:28.450Z,24.70
2023-05-07T16:27:57.367Z,22.80
2023-05-07T16:30:25.531Z,19.23
2023-05-07T16:32:53.673Z,17.35
2023-05-07T16:35:21.839Z,15.02
2023-05-07T16:37:50.150Z,14.43
2023-05-07T16:40:19.585Z,14.40
2023-05-07T16:42:47.601Z,12.13
2023-05-07T16:45:15.816Z,15.73
2023-05-07T16:47:44.322Z,11.73
2023-05-07T16:50:12.621Z,11.55
2023-05-07T16:52:40.861Z,13.10
2023-05-07T16:55:09.375Z,12.25
2023-05-07T16:57:38.838Z,10.02
2023-05-07T17:00:08.208Z,9.27
2023-05-07T17:02:36.612Z,8.70
2023-05-07T17:05:06.251Z,10.98
2023-05-07T17:07:34.433Z,8.63
2023-05-07T17:10:03.074Z,8.88
2023-05-07T17:12:31.827Z,7.38
2023-05-07T17:15:01.212Z,8.32
2023-05-07T17:17:29.309Z,5.90
2023-05-07T17:19:57.398Z,6.45
2023-05-07T17:22:26.122Z,5.38
2023-05-07T17:24:54.106Z,4.93
2023-05-07T17:27:22.324Z,6.32
2023-05-07T17:29:50.529Z,5.22
2023-05-07T17:32:19.813Z,5.97
2023-05-07T17:34:47.873Z,6.13
2023-05-07T17:37:16.232Z,6.53
2023-05-07T17:39:44.232Z,7.38
2023-05-07T17:42:12.226Z,4.78
2023-05-07T17:44:40.196Z,9.27
2023-05-07T17:47:08.453Z,6.07
2023-05-07T17:49:38.394Z,5.65
2023-05-07T17:52:06.821Z,5.18
2023-05-07T17:54:34.862Z,5.10
2023-05-07T17:57:02.874Z,5.30
2023-05-07T17:59:31.050Z,6.85
2023-05-07T18:01:59.039Z,5.90
2023-05-07T18:04:28.171Z,4.07
2023-05-07T18:06:58.005Z,7.95
2023-05-07T18:09:25.977Z,4.93
2023-05-07T18:11:54.027Z,3.95
2023-05-07T18:14:25.960Z,7.78
2023-05-07T18:16:54.340Z,4.80
2023-05-07T18:19:22.596Z,7.70
2023-05-07T18:21:50.731Z,3.13
2023-05-07T18:24:20.155Z,5.13
2023-05-07T18:26:49.165Z,3.35
2023-05-07T18:29:17.287Z,2.50
2023-05-07T18:31:45.661Z,4.63
2023-05-07T18:34:14.348Z,7.90
2023-05-07T18:36:42.599Z,3.67
2023-05-07T18:39:10.596Z,6.10
2023-05-07T18:41:39.947Z,4.97
2023-05-07T18:44:08.091Z,4.47
2023-05-07T18:46:36.175Z,2.67
2023-05-07T18:49:04.440Z,3.30
2023-05-07T18:51:32.540Z,5.38
2023-05-07T18:54:02.147Z,2.67
2023-05-07T18:56:30.416Z,4.75
2023-05-07T18:58:59.906Z,4.55
2023-05-07T19:01:28.130Z,5.30
2023-05-07T19:03:56.180Z,3.40
2023-05-07T19:06:24.718Z,4.78
2023-05-07T19:08:52.756Z,3.42
2023-05-07T19:11:21.778Z,8.32
2023-05-07T19:13:49.728Z,2.70
2023-05-07T19:16:19.284Z,5.68
2023-05-07T19:18:47.277Z,3.15
2023-05-07T19:21:15.410Z,4.15
2023-05-07T19:23:43.344Z,2.20
2023-05-07T19:26:12.577Z,2.28
2023-05-07T19:28:45.546Z,4.05
2023-05-07T19:31:21.264Z,2.28
2023-05-07T19:33:49.498Z,1.83
2023-05-07T19:36:17.706Z,2.47
2023-05-07T19:38:46.966Z,4.03
2023-05-07T19:41:15.008Z,2.03
2023-05-07T19:43:43.006Z,1.77
2023-05-07T19:46:11.065Z,3.33
2023-05-07T19:48:40.703Z,3.80
2023-05-07T19:51:08.854Z,2.22
2023-05-07T19:53:37.248Z,3.30
2023-05-07T19:56:06.362Z,1.65
2023-05-07T19:58:35.025Z,3.13
2023-05-07T20:01:03.814Z,3.22
2023-05-07T20:03:33.597Z,2.30
2023-05-07T20:06:03.939Z,2.13
2023-05-07T20:08:31.987Z,3.55
2023-05-07T20:11:00.788Z,2.35
2023-05-07T20:13:29.319Z,2.88
2023-05-07T20:16:00.960Z,2.03
2023-05-07T20:18:30.276Z,2.65
2023-05-07T20:20:58.509Z,3.00
2023-05-07T20:23:27.853Z,2.88
2023-05-07T20:25:56.008Z,3.00
2023-05-07T20:28:24.011Z,2.17
2023-05-07T20:30:52.175Z,3.22
2023-05-07T20:33:20.084Z,3.17
2023-05-07T20:35:48.109Z,2.53
2023-05-07T20:38:16.186Z,3.03
2023-05-07T20:40:45.679Z,1.60
2023-05-07T20:43:13.677Z,2.03
2023-05-07T20:45:41.758Z,2.15
2023-05-07T20:48:09.719Z,1.90
2023-05-07T20:50:37.646Z,4.88
2023-05-07T20:53:05.706Z,2.20
2023-05-07T20:55:33.718Z,2.92
2023-05-07T20:58:03.152Z,2.63
2023-05-07T21:00:31.234Z,1.65
2023-05-07T21:02:59.220Z,2.70
2023-05-07T21:05:27.279Z,2.33
2023-05-07T21:07:55.204Z,1.65
2023-05-07T21:10:23.470Z,4.00
2023-05-07T21:12:52.347Z,3.33
2023-05-07T21:15:21.799Z,3.47
2023-05-07T21:17:49.799Z,2.85
2023-05-07T21:20:18.161Z,3.67
2023-05-07T21:22:46.072Z,1.40
2023-05-07T21:25:14.266Z,1.52
2023-05-07T21:27:42.354Z,2.90
2023-05-07T21:30:11.886Z,2.53
2023-05-07T21:32:41.583Z,2.67
2023-05-07T21:35:10.448Z,3.38
2023-05-07T21:37:38.539Z,8.70
2023-05-07T21:40:08.630Z,3.72
2023-05-07T21:42:36.633Z,2.75
2023-05-07T21:45:06.294Z,3.30
2023-05-07T21:47:34.258Z,3.80
2023-05-07T21:50:03.713Z,3.83
2023-05-07T21:52:31.644Z,1.60
2023-05-07T21:54:59.686Z,2.30
2023-05-07T21:57:27.618Z,1.33
2023-05-07T21:59:55.585Z,2.08
2023-05-07T22:02:23.510Z,4.32
2023-05-07T22:04:51.568Z,2.92
2023-05-07T22:07:20.969Z,3.55
2023-05-07T22:09:48.965Z,1.80
2023-05-07T22:12:17.070Z,3.05
2023-05-07T22:14:45.182Z,3.95
2023-05-07T22:17:13.220Z,3.15
2023-05-07T22:19:41.281Z,2.42
2023-05-07T22:22:09.486Z,2.53
2023-05-07T22:24:38.756Z,2.72
2023-05-07T22:27:06.728Z,3.65
2023-05-07T22:29:34.665Z,1.85
2023-05-07T22:32:02.779Z,2.85
2023-05-07T22:34:30.769Z,3.78
2023-05-07T22:36:58.815Z,4.80
2023-05-07T22:39:26.798Z,3.15
2023-05-07T22:41:56.171Z,3.00
2023-05-07T22:44:24.217Z,2.88
2023-05-07T22:46:52.253Z,3.22
2023-05-07T22:49:20.271Z,4.05
2023-05-07T22:51:48.290Z,2.35
2023-05-07T22:54:16.258Z,2.35
2023-05-07T22:56:44.413Z,4.68
2023-05-07T22:59:14.430Z,3.00
2023-05-07T23:01:42.598Z,2.45
2023-05-07T23:04:10.693Z,1.98
2023-05-07T23:06:38.956Z,4.25
2023-05-07T23:09:07.074Z,2.25
2023-05-07T23:11:35.471Z,4.93
2023-05-07T23:14:03.611Z,2.88
2023-05-07T23:16:33.015Z,1.42
2023-05-07T23:19:00.941Z,2.55
2023-05-07T23:21:29.049Z,2.85
2023-05-07T23:23:57.048Z,2.60
2023-05-07T23:26:28.024Z,4.47
2023-05-07T23:28:56.094Z,4.15
2023-05-07T23:31:24.275Z,2.22
2023-05-07T23:33:53.856Z,1.98
2023-05-07T23:36:21.939Z,2.85
2023-05-07T23:38:49.986Z,3.05
2023-05-07T23:41:17.894Z,3.25
2023-05-07T23:43:46.176Z,2.42
2023-05-07T23:46:14.313Z,3.47
2023-05-07T23:48:42.386Z,1.30
2023-05-07T23:51:11.751Z,4.18
2023-05-07T23:53:39.659Z,1.52
2023-05-07T23:56:07.988Z,1.45
2023-05-07T23:58:36.087Z,2.40
